Time;durP1;ratioP1;P1;durP2;ratioP2;P2;SDS_P1;SDS_P2;PMS_P1;PMS_P2;Temp;Humidity;BMP_temperature;BMP_pressure;BME280_temperature;BME280_humidity;BME280_pressure;Samples;Min_cycle;Max_cycle;Signal;HPM_P1;HPM_P2
2022/02/16 00:01:22;;;;;;;16.00;11.20;;;10.50;99.90;;;10.22;100.00;100009.22;5116406;28;20054;-64
2022/02/16 00:03:52;;;;;;;12.30;10.30;;;10.40;99.90;;;10.73;100.00;100103.53;5116398;28;20036;-64
2022/02/16 00:06:20;;;;;;;13.57;10.65;;;10.40;99.90;;;10.71;100.00;100101.81;5116588;28;20088;-66
2022/02/16 00:08:49;;;;;;;15.48;10.90;;;10.50;99.90;;;10.74;100.00;100102.63;5116308;28;20097;-65
2022/02/16 00:11:18;;;;;;;13.32;10.50;;;10.40;99.90;;;10.74;100.00;100094.69;5116855;28;20550;-62
2022/02/16 00:13:46;;;;;;;14.75;11.63;;;10.40;99.90;;;10.75;100.00;100087.63;5116600;28;20060;-63
2022/02/16 00:16:15;;;;;;;13.68;10.98;;;10.40;99.90;;;10.71;100.00;100093.88;5116163;28;20488;-63
2022/02/16 00:18:45;;;;;;;17.17;10.65;;;10.40;99.90;;;10.64;100.00;100071.09;5116149;28;20114;-63
2022/02/16 00:21:13;;;;;;;13.47;10.17;;;10.40;99.90;;;10.49;100.00;100042.28;5116608;28;20058;-63
2022/02/16 00:23:42;;;;;;;13.50;9.88;;;10.40;99.90;;;10.70;100.00;100078.91;5116308;28;20300;-63
2022/02/16 00:26:10;;;;;;;15.38;11.27;;;10.40;99.90;;;10.63;100.00;100067.56;5116006;28;20043;-62
2022/02/16 00:28:39;;;;;;;18.83;10.63;;;10.40;99.90;;;10.65;100.00;100060.47;5115983;28;20040;-61
2022/02/16 00:31:07;;;;;;;15.15;10.57;;;10.30;99.90;;;10.68;100.00;100059.56;5116130;28;20092;-63
2022/02/16 00:33:36;;;;;;;18.13;9.55;;;10.30;99.90;;;10.67;100.00;100057.78;5116618;28;20419;-62
2022/02/16 00:36:06;;;;;;;16.65;8.80;;;10.30;99.90;;;10.64;100.00;100042.00;5114798;28;20044;-62
2022/02/16 00:38:36;;;;;;;25.83;9.95;;;10.40;99.90;;;10.28;100.00;99989.78;5116050;28;20521;-62
2022/02/16 00:41:04;;;;;;;19.50;9.18;;;10.30;99.90;;;10.69;100.00;100025.13;5115798;28;20449;-62
2022/02/16 00:43:34;;;;;;;18.95;8.60;;;10.40;99.90;;;10.59;100.00;100012.09;5115849;28;20455;-63
2022/02/16 00:46:03;;;;;;;20.23;8.85;;;10.40;99.90;;;10.67;100.00;100016.34;5149037;27;20039;-62
2022/02/16 00:48:31;;;;;;;19.52;9.27;;;10.50;99.90;;;10.77;100.00;100025.00;5114652;28;20130;-61
2022/02/16 00:51:00;;;;;;;19.20;8.63;;;10.50;99.90;;;10.65;100.00;100015.50;5148972;27;20058;-63
2022/02/16 00:53:30;;;;;;;23.35;8.75;;;10.50;99.90;;;10.83;100.00;100019.59;5131550;27;20101;-63
2022/02/16 00:56:00;;;;;;;19.90;8.63;;;10.50;99.90;;;10.54;100.00;99961.09;5114485;28;20050;-62
2022/02/16 00:58:31;;;;;;;21.75;9.07;;;10.50;99.90;;;10.78;100.00;100005.59;5131245;27;20499;-63
2022/02/16 01:01:01;;;;;;;18.95;9.23;;;10.50;99.90;;;10.84;100.00;99998.41;5131424;27;20048;-62
2022/02/16 01:03:31;;;;;;;20.83;8.70;;;10.50;99.90;;;10.84;100.00;99987.81;5114173;28;20087;-62
2022/02/16 01:06:01;;;;;;;18.40;10.07;;;10.50;99.90;;;10.77;100.00;99980.91;5115589;27;20451;-62
2022/02/16 01:08:33;;;;;;;19.85;8.93;;;10.50;99.90;;;10.90;100.00;99985.06;5114101;28;20044;-63
2022/02/16 01:11:06;;;;;;;29.70;10.77;;;10.50;99.90;;;10.87;100.00;99976.31;5114189;28;20043;-62
2022/02/16 01:13:34;;;;;;;27.65;11.00;;;10.50;99.90;;;10.19;100.00;99915.94;5114139;28;20052;-62
2022/02/16 01:16:06;;;;;;;26.52;11.07;;;10.50;99.90;;;10.81;100.00;99965.84;5131197;27;20044;-63
2022/02/16 01:18:39;;;;;;;34.88;11.32;;;10.50;99.90;;;10.78;100.00;99964.13;5131068;27;20409;-62
2022/02/16 01:21:07;;;;;;;33.13;11.18;;;10.50;99.90;;;10.80;100.00;99954.38;5115094;28;20046;-63
2022/02/16 01:23:38;;;;;;;35.08;10.43;;;10.50;99.90;;;10.83;100.00;99953.47;5130994;27;20062;-62
2022/02/16 01:26:12;;;;;;;34.30;10.95;;;10.50;99.90;;;10.92;100.00;99950.63;5148538;27;20048;-63
2022/02/16 01:28:43;;;;;;;33.15;10.32;;;10.60;99.90;;;10.83;100.00;99930.53;5113854;28;20488;-62
2022/02/16 01:31:12;;;;;;;28.48;10.10;;;10.50;99.90;;;10.70;100.00;99912.31;5130767;27;20044;-63
2022/02/16 01:33:45;;;;;;;36.55;11.68;;;10.50;99.90;;;10.65;100.00;99909.75;5130856;27;20040;-63
2022/02/16 01:36:15;;;;;;;41.05;11.10;;;10.50;99.90;;;10.74;100.00;99920.13;5130744;27;20043;-62
2022/02/16 01:38:49;;;;;;;36.15;12.50;;;10.50;99.90;;;10.66;100.00;99898.28;5113689;28;20130;-63
2022/02/16 01:41:23;;;;;;;32.45;12.55;;;10.50;99.90;;;10.84;100.00;99905.81;5130750;27;20044;-62
2022/02/16 01:44:01;;;;;;;30.30;13.68;;;10.50;99.90;;;10.81;100.00;99886.50;5130860;27;20047;-62
2022/02/16 01:46:30;;;;;;;35.67;15.18;;;10.60;99.90;;;10.99;100.00;99903.75;5130438;27;20097;-63
2022/02/16 01:49:02;;;;;;;32.92;14.73;;;10.60;99.90;;;10.78;100.00;99882.13;5147833;27;20035;-62
2022/02/16 01:51:38;;;;;;;31.38;14.80;;;10.60;99.90;;;10.86;100.00;99869.63;5114617;28;20051;-63
2022/02/16 01:54:09;;;;;;;33.05;16.17;;;10.70;99.90;;;10.93;100.00;99886.25;5113307;28;20048;-62
2022/02/16 01:56:41;;;;;;;31.40;15.98;;;10.60;99.90;;;10.63;100.00;99841.91;5113173;28;20455;-64
2022/02/16 01:59:11;;;;;;;27.08;16.77;;;10.60;99.90;;;10.78;100.00;99871.53;5129966;27;20056;-63
2022/02/16 02:02:08;;;;;;;33.97;15.70;;;10.60;99.90;;;10.70;100.00;99836.44;5113845;28;20051;-62
2022/02/16 02:04:40;;;;;;;30.50;15.10;;;10.60;99.90;;;10.86;100.00;99858.16;5113147;28;20051;-63
2022/02/16 02:07:12;;;;;;;32.63;15.57;;;10.60;99.90;;;10.78;100.00;99833.69;5113086;28;20051;-62
2022/02/16 02:09:42;;;;;;;29.25;15.27;;;10.60;99.90;;;10.77;100.00;99831.91;5113077;28;20058;-64
2022/02/16 02:12:12;;;;;;;30.27;14.98;;;10.60;99.90;;;10.96;100.00;99843.81;5129959;27;20062;-63
2022/02/16 02:14:43;;;;;;;35.22;15.15;;;10.60;99.90;;;10.91;100.00;99827.19;5112967;28;20051;-62
2022/02/16 02:17:19;;;;;;;33.25;16.00;;;10.60;99.90;;;10.43;100.00;99727.81;5114213;28;20031;-62
2022/02/16 02:19:48;;;;;;;27.55;15.85;;;10.80;99.90;;;11.06;100.00;99844.47;5129978;27;20043;-62
2022/02/16 02:22:18;;;;;;;24.60;14.32;;;10.80;99.90;;;11.01;100.00;99830.50;5112591;28;20036;-62
2022/02/16 02:24:48;;;;;;;27.58;16.10;;;10.80;99.90;;;10.92;100.00;99839.50;5114158;28;20112;-63
2022/02/16 02:27:17;;;;;;;31.23;15.90;;;10.60;99.90;;;10.89;100.00;99852.81;5112781;28;20036;-62
2022/02/16 02:29:45;;;;;;;30.38;15.88;;;10.60;99.90;;;10.97;100.00;99840.28;5113963;28;20039;-62
2022/02/16 02:32:17;;;;;;;23.00;15.02;;;10.70;99.90;;;10.96;100.00;99832.38;5129692;27;20047;-63
2022/02/16 02:34:45;;;;;;;24.88;16.73;;;10.60;99.90;;;10.99;100.00;99813.78;5112614;28;20055;-62
2022/02/16 02:37:14;;;;;;;29.50;16.23;;;10.70;99.90;;;10.79;100.00;99793.09;5113634;28;20400;-63
2022/02/16 02:39:44;;;;;;;27.63;16.98;;;10.60;99.90;;;10.84;100.00;99788.53;5112535;28;20055;-62
2022/02/16 02:42:15;;;;;;;22.85;15.10;;;10.70;99.90;;;10.79;100.00;99779.84;5112551;28;20488;-63
2022/02/16 02:44:44;;;;;;;22.05;16.00;;;10.60;99.90;;;10.92;100.00;99797.19;5113494;28;20054;-62
2022/02/16 02:47:13;;;;;;;22.88;14.70;;;10.60;99.90;;;10.83;100.00;99800.03;5113772;28;20097;-63
2022/02/16 02:49:41;;;;;;;22.98;15.93;;;10.60;99.90;;;10.84;100.00;99799.13;5129560;27;20048;-63
2022/02/16 02:52:10;;;;;;;19.08;14.50;;;10.60;99.90;;;10.82;100.00;99778.00;5112723;28;20121;-62
2022/02/16 02:54:40;;;;;;;20.55;16.58;;;10.60;99.90;;;10.78;100.00;99778.13;5129678;28;20039;-62
2022/02/16 02:57:10;;;;;;;19.90;15.77;;;10.50;99.90;;;10.81;100.00;99775.41;5113673;28;20070;-62
2022/02/16 02:59:41;;;;;;;24.45;16.15;;;10.50;99.90;;;10.79;100.00;99777.22;5129154;28;20069;-63
2022/02/16 03:02:10;;;;;;;20.00;14.70;;;10.50;99.90;;;10.78;100.00;99772.84;5146712;27;20135;-62
2022/02/16 03:04:39;;;;;;;20.92;14.63;;;10.50;99.90;;;10.79;100.00;99777.22;5112341;28;20051;-63
2022/02/16 03:07:07;;;;;;;22.10;14.63;;;10.50;99.90;;;10.60;100.00;99741.50;5129393;28;20067;-63
2022/02/16 03:09:36;;;;;;;18.23;13.88;;;10.50;99.90;;;10.65;100.00;99743.16;5112280;28;20040;-62
2022/02/16 03:12:06;;;;;;;17.75;12.93;;;10.50;99.90;;;10.72;100.00;99767.69;5114689;28;20061;-62
2022/02/16 03:14:37;;;;;;;17.63;13.48;;;10.50;99.90;;;9.75;100.00;99597.19;5116446;28;20109;-62
2022/02/16 03:17:06;;;;;;;15.35;13.13;;;10.40;99.90;;;10.68;100.00;99745.72;5150863;27;20390;-62
2022/02/16 03:19:34;;;;;;;15.88;13.43;;;10.40;99.90;;;9.89;100.00;99611.81;5133428;27;20036;-62
2022/02/16 03:22:03;;;;;;;17.95;12.55;;;10.40;99.90;;;10.35;100.00;99696.28;5133260;27;20051;-62
2022/02/16 03:24:32;;;;;;;16.75;13.60;;;10.40;99.90;;;10.51;100.00;99718.78;5133321;27;20039;-62
2022/02/16 03:27:00;;;;;;;16.00;12.45;;;10.40;99.90;;;10.66;100.00;99734.31;5117173;28;20460;-62
2022/02/16 03:29:49;;;;;;;18.67;12.30;;;10.40;99.90;;;10.68;100.00;99698.09;5133308;27;20139;-62
2022/02/16 03:32:18;;;;;;;15.48;11.95;;;10.40;99.90;;;10.62;100.00;99700.06;5117364;27;20093;-62
2022/02/16 03:34:46;;;;;;;15.88;11.05;;;10.40;99.90;;;10.60;100.00;99693.94;5133122;27;20138;-62
2022/02/16 03:37:15;;;;;;;15.13;10.48;;;10.30;99.90;;;10.53;100.00;99676.47;5115916;28;20595;-63
2022/02/16 03:39:44;;;;;;;13.48;10.65;;;10.30;99.90;;;10.53;100.00;99679.13;5133026;27;20044;-62
2022/02/16 03:42:14;;;;;;;13.10;9.98;;;10.40;99.90;;;10.68;100.00;99660.25;5115677;28;20139;-63
2022/02/16 03:44:43;;;;;;;11.10;9.95;;;10.40;99.90;;;10.61;100.00;99670.09;5150321;27;20043;-62
2022/02/16 03:47:15;;;;;;;10.43;8.90;;;10.40;99.90;;;10.54;100.00;99639.44;5115728;28;20076;-62
2022/02/16 03:49:44;;;;;;;11.05;8.98;;;10.50;99.90;;;10.53;100.00;99636.81;5116970;28;20039;-62
2022/02/16 03:52:13;;;;;;;10.38;9.27;;;10.40;99.90;;;10.66;100.00;99662.94;5132841;27;20134;-62
2022/02/16 03:54:44;;;;;;;11.55;10.02;;;10.40;99.90;;;10.36;100.00;99600.22;5115591;28;20053;-63
2022/02/16 03:57:13;;;;;;;9.98;9.07;;;10.40;99.90;;;10.49;100.00;99606.91;5115564;28;20158;-62
2022/02/16 03:59:41;;;;;;;10.30;9.30;;;10.40;99.90;;;10.61;100.00;99637.47;5116199;28;20513;-62
2022/02/16 04:02:33;;;;;;;10.82;9.73;;;10.40;99.90;;;8.26;100.00;99224.25;5116104;28;20056;-62
2022/02/16 04:05:02;;;;;;;13.57;12.35;;;10.40;99.90;;;10.60;100.00;99606.69;5116754;28;20078;-62
2022/02/16 04:07:30;;;;;;;15.23;13.57;;;10.40;99.90;;;10.60;100.00;99619.91;5116739;28;20044;-62
2022/02/16 04:09:59;;;;;;;13.30;12.00;;;10.30;99.90;;;10.65;100.00;99604.78;5132167;27;20125;-62
2022/02/16 04:12:28;;;;;;;12.30;11.10;;;10.40;99.90;;;10.62;100.00;99599.56;5132428;27;20131;-62
2022/02/16 04:14:56;;;;;;;12.23;11.13;;;10.40;99.90;;;10.65;100.00;99618.00;5114937;28;20131;-62
2022/02/16 04:17:25;;;;;;;10.27;9.38;;;10.40;99.90;;;10.61;100.00;99587.25;5115102;28;20046;-62
2022/02/16 04:19:59;;;;;;;10.65;9.65;;;10.40;99.90;;;10.67;100.00;99572.09;5132402;27;20066;-62
2022/02/16 04:22:28;;;;;;;10.55;9.52;;;10.40;99.90;;;10.62;100.00;99581.06;5115992;28;20044;-62
2022/02/16 04:24:56;;;;;;;9.90;9.00;;;10.40;99.90;;;10.50;100.00;99586.66;5131902;27;20047;-62
2022/02/16 04:27:25;;;;;;;9.63;8.73;;;10.40;99.90;;;10.41;100.00;99532.25;5116144;28;20093;-63
2022/02/16 04:29:54;;;;;;;10.10;9.20;;;10.40;99.90;;;10.60;100.00;99559.09;5132047;27;20051;-62
2022/02/16 04:32:22;;;;;;;9.63;8.75;;;10.40;99.90;;;10.36;100.00;99509.47;5114833;28;20066;-62
2022/02/16 04:34:51;;;;;;;10.85;9.85;;;10.40;99.90;;;10.61;100.00;99550.22;5131657;27;20051;-65
2022/02/16 04:37:21;;;;;;;10.57;9.63;;;10.40;99.90;;;10.35;100.00;99489.25;5115780;27;20127;-62
2022/02/16 04:39:50;;;;;;;9.65;8.82;;;10.40;99.90;;;10.55;100.00;99518.69;5131981;27;20055;-62
2022/02/16 04:42:21;;;;;;;10.48;9.40;;;10.40;99.90;;;10.59;100.00;99541.47;5131692;27;20043;-62
2022/02/16 04:44:50;;;;;;;10.38;9.27;;;10.40;99.90;;;10.04;100.00;99429.22;5115768;28;20522;-62
2022/02/16 04:47:20;;;;;;;10.32;9.23;;;10.40;99.90;;;10.52;100.00;99543.41;5114599;28;20127;-62
2022/02/16 04:49:49;;;;;;;9.87;8.97;;;10.30;99.90;;;10.55;100.00;99493.09;5131721;27;20489;-62
2022/02/16 04:52:17;;;;;;;10.23;9.23;;;10.30;99.90;;;10.53;100.00;99523.16;5131745;27;20446;-62
2022/02/16 04:54:48;;;;;;;10.95;9.20;;;10.30;99.90;;;10.54;100.00;99486.09;5148896;27;20515;-63
2022/02/16 04:57:17;;;;;;;;;;;10.30;99.90;;;10.57;100.00;99503.63;5131800;27;20052;-63
2022/02/16 04:59:52;;;;;;;11.35;9.73;;;10.40;99.90;;;10.51;100.00;99482.66;5114212;28;20288;-64
2022/02/16 05:02:24;;;;;;;9.65;8.75;;;10.30;99.90;;;10.47;100.00;99463.34;5114170;28;20082;-63
2022/02/16 05:04:52;;;;;;;10.45;9.43;;;10.30;99.90;;;10.55;100.00;99465.81;5148765;27;20584;-64
2022/02/16 05:07:22;;;;;;;9.90;8.90;;;10.40;99.90;;;10.55;100.00;99444.66;5114243;28;20043;-64
2022/02/16 05:09:53;;;;;;;8.98;8.20;;;10.30;99.90;;;10.53;100.00;99435.91;5114254;28;20139;-62
2022/02/16 05:12:22;;;;;;;10.10;9.10;;;10.40;99.90;;;10.60;100.00;99456.84;5113809;28;20044;-61
2022/02/16 05:14:50;;;;;;;10.10;9.15;;;10.40;99.90;;;10.63;100.00;99469.97;5114042;28;20043;-63
2022/02/16 05:17:19;;;;;;;11.90;10.80;;;10.40;99.90;;;10.38;100.00;99439.81;5115265;28;20048;-62
2022/02/16 05:19:48;;;;;;;10.48;9.48;;;10.40;99.90;;;10.65;100.00;99462.00;5131129;27;20101;-62
2022/02/16 05:22:16;;;;;;;10.98;9.82;;;10.40;99.90;;;10.63;100.00;99464.69;5113664;28;20096;-62
2022/02/16 05:24:48;;;;;;;11.55;10.00;;;10.40;99.90;;;10.59;100.00;99417.22;5131040;27;20496;-62
2022/02/16 05:27:19;;;;;;;12.07;10.82;;;10.40;99.90;;;10.59;100.00;99425.16;5130882;27;20039;-63
2022/02/16 05:29:50;;;;;;;12.40;10.87;;;10.40;99.90;;;10.68;100.00;99440.78;5115057;28;20114;-63
2022/02/16 05:32:19;;;;;;;13.10;11.88;;;10.40;99.90;;;10.58;100.00;99402.28;5113755;28;20782;-63
2022/02/16 05:34:47;;;;;;;12.77;10.85;;;10.50;99.90;;;10.77;100.00;99408.78;5130068;27;20552;-63
2022/02/16 05:37:17;;;;;;;11.35;10.32;;;10.50;99.90;;;10.72;100.00;99395.66;5113594;28;20075;-64
2022/02/16 05:39:47;;;;;;;13.40;10.60;;;10.50;99.90;;;10.72;100.00;99381.59;5130759;27;20035;-63
2022/02/16 05:42:16;;;;;;;11.18;10.07;;;10.50;99.90;;;10.72;100.00;99376.31;5113498;28;20053;-63
2022/02/16 05:44:51;;;;;;;11.05;9.95;;;10.50;99.90;;;10.80;100.00;99390.19;5147972;27;20435;-65
2022/02/16 05:47:20;;;;;;;;;;;10.50;99.90;;;10.85;100.00;99388.25;5113912;28;20052;-62
2022/02/16 05:49:49;;;;;;;10.88;9.88;;;10.60;99.90;;;10.57;100.00;99339.72;5113295;28;19926;-63
2022/02/16 05:52:18;;;;;;;12.38;9.15;;;10.60;99.90;;;10.68;100.00;99361.44;5113337;28;20455;-63
2022/02/16 05:54:46;;;;;;;11.35;9.63;;;10.60;99.90;;;10.74;100.00;99388.56;5114288;28;20039;-63
2022/02/16 05:57:15;;;;;;;10.88;9.25;;;10.60;99.90;;;10.87;100.00;99397.03;5113155;28;20036;-63
2022/02/16 05:59:44;;;;;;;10.25;9.35;;;10.60;99.90;;;10.90;100.00;99388.97;5112940;28;20104;-63
2022/02/16 06:02:18;;;;;;;10.63;9.60;;;10.70;99.90;;;10.81;100.00;99379.56;5113163;28;20382;-63
2022/02/16 06:04:47;;;;;;;10.27;9.27;;;10.60;99.90;;;10.86;100.00;99369.69;5130238;27;20516;-63
2022/02/16 06:07:16;;;;;;;10.13;9.13;;;10.60;99.90;;;10.61;100.00;99344.00;5114072;28;20064;-63
2022/02/16 06:09:44;;;;;;;10.63;9.63;;;10.60;99.90;;;10.45;100.00;99337.44;5130085;27;20053;-64
2022/02/16 06:12:13;;;;;;;10.38;9.38;;;10.60;99.90;;;10.71;100.00;99356.06;5112957;28;20046;-63
2022/02/16 06:14:42;;;;;;;9.55;8.65;;;10.60;99.90;;;10.93;100.00;99374.81;5112897;28;20055;-63
2022/02/16 06:17:12;;;;;;;9.77;8.80;;;10.70;99.90;;;10.93;100.00;99375.69;5130016;27;20036;-63
2022/02/16 06:19:42;;;;;;;9.98;9.05;;;10.70;99.90;;;10.83;100.00;99388.31;5112868;28;20047;-63
2022/02/16 06:22:11;;;;;;;8.77;8.07;;;10.70;99.90;;;10.96;100.00;99386.16;5147012;27;20055;-62
2022/02/16 06:24:41;;;;;;;9.23;8.32;;;10.70;99.90;;;11.00;100.00;99381.63;5129775;27;20047;-63
2022/02/16 06:27:10;;;;;;;8.93;8.13;;;10.70;99.90;;;10.98;100.00;99360.53;5112718;28;20548;-64
2022/02/16 06:29:39;;;;;;;9.10;8.30;;;10.70;99.90;;;11.03;100.00;99376.28;5112550;28;20040;-63
2022/02/16 06:32:12;;;;;;;8.32;7.47;;;10.70;99.90;;;10.93;100.00;99361.59;5113840;28;20047;-63
2022/02/16 06:34:43;;;;;;;7.55;6.85;;;10.80;99.90;;;10.98;100.00;99370.22;5112510;28;20532;-63
2022/02/16 06:37:16;;;;;;;7.65;6.97;;;10.80;99.90;;;11.01;100.00;99376.31;5147272;27;20445;-64
2022/02/16 06:39:46;;;;;;;8.20;7.40;;;10.80;99.90;;;10.81;100.00;99346.94;5129706;27;20546;-63
2022/02/16 06:42:16;;;;;;;7.13;6.53;;;10.80;99.90;;;11.12;100.00;99392.72;5112514;28;20082;-63
2022/02/16 06:44:45;;;;;;;7.70;6.88;;;10.80;99.90;;;11.07;100.00;99367.34;5113632;28;20069;-63
2022/02/16 06:47:16;;;;;;;7.78;6.97;;;10.80;99.90;;;10.47;100.00;99277.50;5112372;28;20054;-64
2022/02/16 06:49:45;;;;;;;10.95;7.28;;;10.80;99.90;;;11.12;100.00;99389.22;5129784;27;20058;-64
2022/02/16 06:52:15;;;;;;;9.77;7.55;;;10.90;99.90;;;11.09;100.00;99382.22;5129839;28;20051;-63
2022/02/16 06:54:44;;;;;;;9.40;8.55;;;10.90;99.90;;;11.14;100.00;99401.50;5112304;28;20084;-63
2022/02/16 06:57:13;;;;;;;12.65;9.05;;;10.90;99.90;;;11.21;100.00;99383.63;5112354;28;20553;-64
2022/02/16 07:00:02;;;;;;;11.18;8.98;;;11.00;99.90;;;11.27;100.00;99371.09;5112542;28;20489;-63
2022/02/16 07:02:31;;;;;;;12.68;8.80;;;11.00;99.90;;;11.09;100.00;99347.00;5113292;28;20485;-63
2022/02/16 07:05:01;;;;;;;15.35;9.80;;;11.00;99.90;;;11.19;100.00;99353.72;5129326;28;20042;-64
2022/02/16 07:07:30;;;;;;;18.65;10.95;;;11.00;99.90;;;11.29;100.00;99363.09;5112430;28;20144;-63
2022/02/16 07:09:59;;;;;;;18.02;10.40;;;11.00;99.90;;;11.33;100.00;99359.44;5111884;28;20039;-65
2022/02/16 07:12:30;;;;;;;17.98;10.15;;;11.10;99.90;;;11.33;100.00;99367.38;5129362;28;20051;-63
2022/02/16 07:14:58;;;;;;;20.17;10.00;;;11.10;99.90;;;11.28;100.00;99354.31;5129318;28;20071;-63
2022/02/16 07:17:28;;;;;;;21.30;10.40;;;11.10;99.90;;;11.19;100.00;99346.63;5112131;28;20044;-63
2022/02/16 07:19:56;;;;;;;15.98;8.52;;;11.10;99.90;;;11.44;100.00;99384.66;5129244;28;20047;-63
2022/02/16 07:22:28;;;;;;;18.80;10.10;;;11.20;99.90;;;11.49;100.00;99390.69;5129353;28;20497;-63
2022/02/16 07:24:58;;;;;;;21.50;9.43;;;11.20;99.90;;;11.31;100.00;99350.69;5112123;28;20092;-63
2022/02/16 07:27:27;;;;;;;18.55;9.68;;;11.20;99.90;;;11.37;100.00;99356.66;5112078;28;20093;-63
2022/02/16 07:29:56;;;;;;;28.25;10.15;;;11.30;99.90;;;11.56;100.00;99378.09;5129180;28;20353;-63
2022/02/16 07:32:26;;;;;;;21.73;9.68;;;11.30;99.90;;;11.57;100.00;99391.31;5129243;28;20078;-62
2022/02/16 07:34:54;;;;;;;21.90;9.93;;;11.30;99.90;;;11.54;100.00;99391.38;5111969;28;20092;-65
2022/02/16 07:37:23;;;;;;;27.02;8.90;;;11.30;99.90;;;11.46;100.00;99387.25;5111961;28;20044;-65
2022/02/16 07:39:53;;;;;;;28.58;8.90;;;11.30;99.90;;;11.53;100.00;99389.69;5146023;27;20044;-63
2022/02/16 07:42:22;;;;;;;32.60;10.20;;;11.30;99.90;;;11.48;100.00;99383.63;5112242;28;20051;-64
2022/02/16 07:45:15;;;;;;;27.30;8.57;;;11.40;99.90;;;11.63;100.00;99424.66;5112745;28;20130;-65
2022/02/16 07:47:44;;;;;;;27.88;9.45;;;11.40;99.90;;;11.61;100.00;99421.19;5129041;28;20453;-65
2022/02/16 07:50:13;;;;;;;30.63;10.55;;;11.40;99.90;;;11.63;100.00;99436.09;5111856;28;20097;-63
2022/02/16 07:52:45;;;;;;;36.63;9.43;;;11.40;99.90;;;11.54;100.00;99419.63;5113292;28;20544;-65
2022/02/16 07:55:26;;;;;;;29.35;9.52;;;11.40;99.90;;;11.60;100.00;99441.50;5111923;28;20039;-62
2022/02/16 07:58:01;;;;;;;33.38;10.30;;;11.50;99.90;;;11.60;100.00;99420.31;5112922;28;20480;-62
2022/02/16 08:00:31;;;;;;;40.72;9.88;;;11.40;99.90;;;11.63;100.00;99445.84;5115139;28;20079;-63
2022/02/16 08:03:10;;;;;;;37.90;10.07;;;11.40;99.90;;;11.64;100.00;99442.28;5115569;28;20048;-63
2022/02/16 08:05:42;;;;;;;32.63;8.82;;;11.40;99.90;;;11.64;100.00;99463.47;5115292;28;20043;-63
2022/02/16 08:08:21;;;;;;;46.17;11.48;;;11.40;99.90;;;11.67;100.00;99461.63;5132456;27;20044;-62
2022/02/16 08:10:54;;;;;;;51.30;11.13;;;11.40;99.90;;;11.62;100.00;99444.97;5115382;28;20108;-63
2022/02/16 08:13:23;;;;;;;50.20;10.43;;;11.40;99.90;;;11.58;100.00;99426.56;5132542;27;20511;-62
2022/02/16 08:16:14;;;;;;;52.35;11.85;;;11.40;99.90;;;11.63;100.00;99461.75;5115228;28;20055;-64
2022/02/16 08:19:12;;;;;;;55.70;12.18;;;11.50;99.90;;;11.56;100.00;99445.16;5114803;27;20051;-66
2022/02/16 08:21:44;;;;;;;54.80;12.07;;;11.40;99.90;;;11.65;100.00;99467.84;5115123;28;20071;-66
2022/02/16 08:24:13;;;;;;;53.78;11.32;;;11.40;99.90;;;11.69;100.00;99462.44;5115301;28;20436;-64
2022/02/16 08:26:45;;;;;;;62.08;12.82;;;11.50;99.90;;;11.69;100.00;99457.13;5132188;27;20061;-64
2022/02/16 08:29:16;;;;;;;61.92;13.05;;;11.40;99.90;;;11.72;100.00;99446.47;5114910;28;20046;-64
2022/02/16 08:31:47;;;;;;;;;;;11.50;99.90;;;11.59;100.00;99405.34;5132599;27;20644;-65
2022/02/16 08:34:20;;;;;;;52.95;11.15;;;11.50;99.90;;;11.76;100.00;99433.97;5132062;27;20383;-65
2022/02/16 08:37:09;;;;;;;56.88;11.88;;;11.50;99.90;;;10.87;100.00;99272.72;5115397;27;20438;-64
2022/02/16 08:39:37;;;;;;;53.75;10.13;;;11.60;99.90;;;11.65;100.00;99385.75;5116073;28;20428;-64
2022/02/16 08:42:07;;;;;;;51.22;10.65;;;11.60;99.90;;;11.85;100.00;99423.06;5115750;28;20122;-62
2022/02/16 08:44:38;;;;;;;54.58;10.40;;;11.70;99.90;;;12.04;100.00;99442.75;5115919;28;20063;-64
2022/02/16 08:47:07;;;;;;;51.08;10.27;;;11.80;99.90;;;12.04;100.00;99457.81;5114575;28;20058;-64
2022/02/16 08:49:38;;;;;;;49.10;10.25;;;11.80;99.90;;;12.08;100.00;99464.75;5115503;27;20047;-63
2022/02/16 08:52:07;;;;;;;54.45;9.48;;;11.80;99.90;;;11.87;100.00;99423.00;5115551;28;20036;-62
2022/02/16 08:54:36;;;;;;;45.40;9.73;;;11.90;99.90;;;12.13;100.00;99458.38;5115633;28;20135;-63
2022/02/16 08:57:07;;;;;;;55.92;11.00;;;11.90;99.90;;;12.22;100.00;99466.00;5115435;28;20032;-63
2022/02/16 08:59:36;;;;;;;45.85;9.68;;;12.00;99.90;;;12.27;100.00;99481.75;5115337;28;20062;-62
2022/02/16 09:02:05;;;;;;;48.65;9.95;;;12.00;99.90;;;12.26;100.00;99464.09;5115388;27;20043;-62
2022/02/16 09:04:34;;;;;;;56.40;10.95;;;12.10;99.90;;;12.40;100.00;99472.47;5115178;28;20036;-62
2022/02/16 09:09:48;;;;;;;54.92;10.90;;;12.10;99.90;;;12.48;100.00;99486.31;5114339;28;20062;-62
2022/02/16 09:12:18;;;;;;;49.55;9.85;;;12.20;99.90;;;12.50;100.00;99458.81;5115134;28;20481;-64
2022/02/16 09:14:47;;;;;;;51.42;9.82;;;12.30;99.90;;;12.61;100.00;99475.25;5115229;28;20450;-64
2022/02/16 09:17:16;;;;;;;46.20;10.27;;;12.40;99.90;;;12.73;100.00;99460.69;5114109;28;20092;-64
2022/02/16 09:19:44;;;;;;;40.35;11.60;;;12.50;99.90;;;12.90;100.00;99476.84;5115314;28;20043;-63
2022/02/16 09:22:13;;;;;;;45.75;10.40;;;12.60;99.90;;;12.93;100.00;99467.94;5115284;28;20115;-64
2022/02/16 09:24:44;;;;;;;42.15;10.23;;;12.70;99.90;;;12.99;100.00;99495.09;5114989;27;20143;-63
2022/02/16 09:27:13;;;;;;;36.70;8.10;;;12.80;99.90;;;12.90;100.00;99413.16;5115122;28;20434;-64
2022/02/16 09:29:44;;;;;;;33.30;7.60;;;12.90;99.90;;;13.14;100.00;99477.78;5114823;28;20259;-63
2022/02/16 09:32:12;;;;;;;;;;;12.90;99.90;;;13.26;100.00;99474.66;5131331;27;20058;-65
2022/02/16 09:34:43;;;;;;;36.08;8.55;;;13.00;99.90;;;13.21;100.00;99466.00;5114894;28;19920;-66
2022/02/16 09:37:12;;;;;;;39.78;9.75;;;13.10;99.90;;;13.28;100.00;99470.16;5114933;28;20430;-65
2022/02/16 09:39:41;;;;;;;35.33;8.10;;;13.10;99.90;;;13.42;100.00;99481.13;5114359;28;20040;-66
2022/02/16 09:42:10;;;;;;;37.58;8.27;;;13.20;99.90;;;12.86;100.00;99382.34;5130654;27;20051;-67
2022/02/16 09:44:46;;;;;;;33.88;7.65;;;13.20;99.90;;;13.39;100.00;99486.56;5114362;28;20078;-67
2022/02/16 09:47:16;;;;;;;32.17;8.50;;;13.20;99.90;;;13.51;100.00;99473.66;5114722;28;20393;-67
2022/02/16 09:49:44;;;;;;;29.27;8.23;;;13.30;99.90;;;13.45;100.00;99479.22;5130542;27;20047;-67
2022/02/16 09:52:14;;;;;;;32.70;7.75;;;13.20;99.90;;;13.52;100.00;99488.69;5114623;28;20068;-67
2022/02/16 09:54:43;;;;;;;33.40;8.43;;;13.30;99.90;;;13.26;100.00;99405.59;5114122;28;20054;-66
2022/02/16 09:57:11;;;;;;;31.70;8.40;;;13.30;99.90;;;13.54;100.00;99465.59;5113236;28;20047;-67
2022/02/16 09:59:40;;;;;;;32.88;9.68;;;13.30;99.90;;;13.62;100.00;99491.84;5130032;27;20047;-66
2022/02/16 10:02:12;;;;;;;37.85;9.43;;;13.40;99.90;;;13.40;100.00;99429.84;5113122;28;20058;-67
2022/02/16 10:04:54;;;;;;;34.97;8.38;;;13.30;99.90;;;13.57;100.00;99457.50;5114174;28;20040;-67
2022/02/16 10:07:25;;;;;;;33.08;7.65;;;13.30;99.90;;;12.96;100.00;99341.28;5114116;28;20036;-64
2022/02/16 10:09:54;;;;;;;31.15;7.90;;;13.30;99.90;;;13.49;100.00;99469.34;5130270;27;20044;-66
2022/02/16 10:12:32;;;;;;;35.50;8.85;;;13.20;99.90;;;13.35;100.00;99435.38;5114274;28;20035;-65
2022/02/16 10:15:01;;;;;;;32.15;8.10;;;13.20;99.90;;;13.37;100.00;99470.69;5113951;28;20134;-65
2022/02/16 10:17:31;;;;;;;34.33;8.20;;;13.20;99.90;;;13.18;100.00;99421.00;5113941;28;20039;-64
2022/02/16 10:20:01;;;;;;;40.80;8.60;;;13.10;99.90;;;13.35;100.00;99451.28;5114141;28;20048;-63